createdAt,value
2019-03-28T00:00:03.671Z,1033.63
2019-03-28T00:01:02.461Z,1033.63
2019-03-28T00:02:02.644Z,1033.57
2019-03-28T00:03:02.454Z,1033.57
2019-03-28T00:04:02.143Z,1033.57
2019-03-28T00:05:02.397Z,1033.57
2019-03-28T00:06:02.640Z,1033.48
2019-03-28T00:07:01.907Z,1033.48
2019-03-28T00:08:02.246Z,1033.48
2019-03-28T00:09:02.341Z,1033.48
2019-03-28T00:10:03.072Z,1033.54
2019-03-28T00:11:01.777Z,1033.54
2019-03-28T00:12:02.003Z,1033.54
2019-03-28T00:13:02.317Z,1033.54
2019-03-28T00:14:02.477Z,1033.65
2019-03-28T00:15:02.731Z,1033.65
2019-03-28T00:16:01.924Z,1033.65
2019-03-28T00:17:02.130Z,1033.65
2019-03-28T00:18:02.793Z,1033.56
2019-03-28T00:19:02.555Z,1033.56
2019-03-28T00:20:02.349Z,1033.56
2019-03-28T00:21:02.267Z,1033.54
2019-03-28T00:22:05.462Z,1033.54
2019-03-28T00:23:02.597Z,1033.54
2019-03-28T00:24:01.761Z,1033.54
2019-03-28T00:25:01.958Z,1033.4
2019-03-28T00:26:02.171Z,1033.4
2019-03-28T00:27:02.486Z,1033.4
2019-03-28T00:28:01.681Z,1033.4
2019-03-28T00:29:02.678Z,1033.63
2019-03-28T00:30:02.288Z,1033.63
2019-03-28T00:31:02.499Z,1033.63
2019-03-28T00:32:01.765Z,1033.63
2019-03-28T00:33:01.968Z,1033.58
2019-03-28T00:34:02.284Z,1033.58
2019-03-28T00:35:02.528Z,1033.58
2019-03-28T00:36:01.697Z,1033.58
2019-03-28T00:37:01.940Z,1033.63
2019-03-28T00:38:02.188Z,1033.63
2019-03-28T00:39:02.432Z,1033.63
2019-03-28T00:40:09.151Z,1033.63
2019-03-28T00:41:01.956Z,1033.45
2019-03-28T00:42:02.080Z,1033.45
2019-03-28T00:43:02.370Z,1033.45
2019-03-28T00:44:02.585Z,1033.45
2019-03-28T00:45:01.912Z,1033.54
2019-03-28T00:46:02.054Z,1033.54
2019-03-28T00:47:02.283Z,1033.54
2019-03-28T00:48:02.577Z,1033.54
2019-03-28T00:49:01.755Z,1033.56
2019-03-28T00:50:02.125Z,1033.56
2019-03-28T00:51:02.685Z,1033.56
2019-03-28T00:52:01.912Z,1033.56
2019-03-28T00:53:02.178Z,1033.48
2019-03-28T00:54:02.360Z,1033.48
2019-03-28T00:55:02.671Z,1033.48
2019-03-28T00:56:02.663Z,1033.48
2019-03-28T00:57:02.057Z,1033.46
2019-03-28T00:58:02.300Z,1033.46
2019-03-28T00:59:02.553Z,1033.46
2019-03-28T01:00:04.160Z,1033.46
2019-03-28T01:01:02.031Z,1033.46
2019-03-28T01:02:02.233Z,1033.46
2019-03-28T01:03:02.403Z,1033.46
2019-03-28T01:04:02.701Z,1033.46
2019-03-28T01:05:01.934Z,1033.42
2019-03-28T01:06:02.227Z,1033.42
2019-03-28T01:07:02.370Z,1033.42
2019-03-28T01:08:02.540Z,1033.42
2019-03-28T01:09:05.547Z,1033.37
2019-03-28T01:10:02.679Z,1033.37
2019-03-28T01:11:02.024Z,1033.37
2019-03-28T01:12:02.706Z,1033.37
2019-03-28T01:13:02.407Z,1033.41
2019-03-28T01:14:02.682Z,1033.41
2019-03-28T01:15:01.919Z,1033.41
2019-03-28T01:16:02.137Z,1033.41
2019-03-28T01:17:02.377Z,1033.28
2019-03-28T01:18:02.590Z,1033.28
2019-03-28T01:19:01.812Z,1033.28
2019-03-28T01:20:02.073Z,1033.28
2019-03-28T01:21:02.206Z,1033.4
2019-03-28T01:22:02.473Z,1033.4
2019-03-28T01:23:01.694Z,1033.4
2019-03-28T01:24:01.983Z,1033.4
2019-03-28T01:25:02.309Z,1033.39
2019-03-28T01:26:02.424Z,1033.39
2019-03-28T01:27:02.671Z,1033.39
2019-03-28T01:28:01.833Z,1033.39
2019-03-28T01:29:02.124Z,1033.3
2019-03-28T01:30:02.387Z,1033.3
2019-03-28T01:31:02.476Z,1033.3
2019-03-28T01:32:02.653Z,1033.3
2019-03-28T01:33:01.938Z,1033.42
2019-03-28T01:34:02.197Z,1033.42
2019-03-28T01:35:02.354Z,1033.42
2019-03-28T01:36:02.514Z,1033.42
2019-03-28T01:37:01.761Z,1033.36
2019-03-28T01:38:01.932Z,1033.36
2019-03-28T01:39:02.287Z,1033.36
2019-03-28T01:40:02.393Z,1033.36
2019-03-28T01:41:02.513Z,1033.3
2019-03-28T01:42:01.775Z,1033.3
2019-03-28T01:43:01.970Z,1033.3
2019-03-28T01:44:02.249Z,1033.3
2019-03-28T01:45:02.525Z,1033.35
2019-03-28T01:46:01.777Z,1033.35
2019-03-28T01:47:01.965Z,1033.35
2019-03-28T01:48:02.186Z,1033.35
2019-03-28T01:49:04.131Z,1033.3
2019-03-28T01:50:02.596Z,1033.3
2019-03-28T01:51:01.843Z,1033.3
2019-03-28T01:52:04.746Z,1033.3
2019-03-28T01:53:02.294Z,1033.25
2019-03-28T01:54:03.345Z,1033.25
2019-03-28T01:55:01.855Z,1033.25
2019-03-28T01:56:02.030Z,1033.25
2019-03-28T01:57:12.780Z,1033.29
2019-03-28T01:58:02.505Z,1033.29
2019-03-28T01:59:02.722Z,1033.29
2019-03-28T02:00:04.367Z,1033.28
2019-03-28T02:01:03.838Z,1033.28
2019-03-28T02:02:02.483Z,1033.28
2019-03-28T02:03:01.710Z,1033.28
2019-03-28T02:04:02.690Z,1033.35
2019-03-28T02:05:02.205Z,1033.35
2019-03-28T02:06:02.474Z,1033.35
2019-03-28T02:07:02.629Z,1033.35
2019-03-28T02:08:03.257Z,1033.38
2019-03-28T02:09:01.985Z,1033.38
2019-03-28T02:10:02.278Z,1033.38
2019-03-28T02:11:02.520Z,1033.38
2019-03-28T02:12:01.700Z,1033.37
2019-03-28T02:13:01.885Z,1033.37
2019-03-28T02:14:02.071Z,1033.37
2019-03-28T02:15:02.354Z,1033.37
2019-03-28T02:16:02.624Z,1033.26
2019-03-28T02:17:01.779Z,1033.26
2019-03-28T02:18:02.021Z,1033.26
2019-03-28T02:19:02.240Z,1033.26
2019-03-28T02:20:02.493Z,1033.26
2019-03-28T02:21:01.739Z,1033.26
2019-03-28T02:22:01.997Z,1033.26
2019-03-28T02:23:02.180Z,1033.26
2019-03-28T02:24:02.431Z,1033.32
2019-03-28T02:25:02.716Z,1033.32
2019-03-28T02:26:01.984Z,1033.32
2019-03-28T02:27:02.158Z,1033.32
2019-03-28T02:28:02.386Z,1033.2
2019-03-28T02:29:02.565Z,1033.2
2019-03-28T02:30:01.884Z,1033.2
2019-03-28T02:31:02.114Z,1033.2
2019-03-28T02:32:02.320Z,1033.28
2019-03-28T02:33:02.485Z,1033.28
2019-03-28T02:34:01.752Z,1033.28
2019-03-28T02:35:01.993Z,1033.28
2019-03-28T02:36:02.239Z,1033.25
2019-03-28T02:37:02.477Z,1033.25
2019-03-28T02:38:02.722Z,1033.25
2019-03-28T02:39:01.915Z,1033.25
2019-03-28T02:40:02.330Z,1033.24
2019-03-28T02:41:02.303Z,1033.24
2019-03-28T02:42:02.493Z,1033.24
2019-03-28T02:43:01.843Z,1033.24
2019-03-28T02:44:01.989Z,1033.26
2019-03-28T02:45:02.237Z,1033.26
2019-03-28T02:46:02.473Z,1033.26
2019-03-28T02:47:02.672Z,1033.26
2019-03-28T02:48:02.365Z,1033.3
2019-03-28T02:49:02.171Z,1033.3
2019-03-28T02:50:02.414Z,1033.3
2019-03-28T02:51:04.424Z,1033.3
2019-03-28T02:52:01.890Z,1033.09
2019-03-28T02:53:02.226Z,1033.09
2019-03-28T02:54:02.303Z,1033.09
2019-03-28T02:55:02.634Z,1033.09
2019-03-28T02:56:01.766Z,1033.07
2019-03-28T02:57:02.071Z,1033.07
2019-03-28T02:58:02.323Z,1033.07
2019-03-28T02:59:03.501Z,1033.07
2019-03-28T03:00:03.476Z,1033.16
2019-03-28T03:01:02.292Z,1033.16
2019-03-28T03:02:02.522Z,1033.16
2019-03-28T03:03:01.766Z,1033.16
2019-03-28T03:04:01.924Z,1033.17
2019-03-28T03:05:02.212Z,1033.17
2019-03-28T03:06:02.421Z,1033.17
2019-03-28T03:07:02.594Z,1033.17
2019-03-28T03:08:01.919Z,1033.14
2019-03-28T03:09:02.156Z,1033.14
2019-03-28T03:10:02.408Z,1033.14
2019-03-28T03:11:02.638Z,1033.14
2019-03-28T03:12:01.841Z,1033.14
2019-03-28T03:13:02.025Z,1033.14
2019-03-28T03:14:02.278Z,1033.14
2019-03-28T03:15:03.596Z,1033.14
2019-03-28T03:16:01.740Z,1033.19
2019-03-28T03:17:01.867Z,1033.19
2019-03-28T03:18:02.105Z,1033.19
2019-03-28T03:19:02.319Z,1033.19
2019-03-28T03:20:02.611Z,1033.27
2019-03-28T03:21:01.838Z,1033.27
2019-03-28T03:22:03.404Z,1033.27
2019-03-28T03:23:02.661Z,1033.27
2019-03-28T03:24:01.856Z,1033.2
2019-03-28T03:25:02.262Z,1033.2
2019-03-28T03:26:02.394Z,1033.2
2019-03-28T03:27:02.646Z,1033.2
2019-03-28T03:28:01.927Z,1033.18
2019-03-28T03:29:02.140Z,1033.18
2019-03-28T03:30:04.155Z,1033.18
2019-03-28T03:31:02.754Z,1033.18
2019-03-28T03:32:01.932Z,1033.15
2019-03-28T03:33:02.136Z,1033.15
2019-03-28T03:34:02.400Z,1033.15
2019-03-28T03:35:02.888Z,1033.15
2019-03-28T03:36:01.743Z,1033.08
2019-03-28T03:37:01.985Z,1033.08
2019-03-28T03:38:02.126Z,1033.08
2019-03-28T03:39:02.452Z,1033.08
2019-03-28T03:40:02.631Z,1033.17
2019-03-28T03:41:01.832Z,1033.17
2019-03-28T03:42:02.056Z,1033.17
2019-03-28T03:43:02.362Z,1033.17
2019-03-28T03:44:02.513Z,1033.17
2019-03-28T03:45:02.683Z,1033.17
2019-03-28T03:46:02.250Z,1033.17
2019-03-28T03:47:02.109Z,1033.14
2019-03-28T03:48:02.344Z,1033.14
2019-03-28T03:49:02.648Z,1033.14
2019-03-28T03:50:01.895Z,1033.14
2019-03-28T03:51:02.000Z,1033.03
2019-03-28T03:52:02.246Z,1033.03
2019-03-28T03:53:02.519Z,1033.03
2019-03-28T03:54:02.668Z,1033.03
2019-03-28T03:55:01.938Z,1033.2
2019-03-28T03:56:02.152Z,1033.2
2019-03-28T03:57:02.354Z,1033.2
2019-03-28T03:58:18.522Z,1033.2
2019-03-28T03:59:01.792Z,1033.16
2019-03-28T04:00:02.130Z,1033.16
2019-03-28T04:01:02.395Z,1033.16
2019-03-28T04:02:02.510Z,1033.16
2019-03-28T04:03:03.653Z,1033.14
2019-03-28T04:04:01.974Z,1033.14
2019-03-28T04:05:02.298Z,1033.14
2019-03-28T04:06:02.621Z,1033.14
2019-03-28T04:07:01.911Z,1033.15
2019-03-28T04:08:02.137Z,1033.15
2019-03-28T04:09:02.284Z,1033.15
2019-03-28T04:10:02.563Z,1033.15
2019-03-28T04:11:01.868Z,1033.17
2019-03-28T04:12:01.997Z,1033.17
2019-03-28T04:13:02.278Z,1033.17
2019-03-28T04:14:03.174Z,1033.17
2019-03-28T04:15:01.944Z,1033.09
2019-03-28T04:16:02.057Z,1033.09
2019-03-28T04:17:02.245Z,1033.09
2019-03-28T04:18:02.505Z,1033.09
2019-03-28T04:19:01.798Z,1033.2
2019-03-28T04:20:02.171Z,1033.2
2019-03-28T04:21:02.306Z,1033.2
2019-03-28T04:22:02.544Z,1033.2
2019-03-28T04:23:01.831Z,1033.21
2019-03-28T04:24:02.137Z,1033.21
2019-03-28T04:25:02.411Z,1033.21
2019-03-28T04:26:02.576Z,1033.21
2019-03-28T04:27:01.845Z,1033.25
2019-03-28T04:28:02.041Z,1033.25
2019-03-28T04:29:02.342Z,1033.25
2019-03-28T04:30:02.662Z,1033.25
2019-03-28T04:31:01.869Z,1033.27
2019-03-28T04:32:02.104Z,1033.27
2019-03-28T04:33:02.259Z,1033.27
2019-03-28T04:34:09.552Z,1033.27
2019-03-28T04:35:02.919Z,1033.28
2019-03-28T04:36:01.939Z,1033.28
2019-03-28T04:37:02.085Z,1033.28
2019-03-28T04:38:02.397Z,1033.28
2019-03-28T04:39:02.600Z,1033.3
2019-03-28T04:40:01.950Z,1033.3
2019-03-28T04:41:02.077Z,1033.3
2019-03-28T04:42:02.271Z,1033.3
2019-03-28T04:43:02.508Z,1033.21
2019-03-28T04:44:01.730Z,1033.21
2019-03-28T04:45:05.295Z,1033.21
2019-03-28T04:46:02.456Z,1033.21
2019-03-28T04:47:02.350Z,1033.27
2019-03-28T04:48:02.620Z,1033.27
2019-03-28T04:49:01.876Z,1033.27
2019-03-28T04:50:02.198Z,1033.27
2019-03-28T04:51:02.357Z,1033.28
2019-03-28T04:52:02.581Z,1033.28
2019-03-28T04:53:01.823Z,1033.28
2019-03-28T04:54:02.103Z,1033.28
2019-03-28T04:55:02.323Z,1033.32
2019-03-28T04:56:02.475Z,1033.32
2019-03-28T04:57:01.751Z,1033.32
2019-03-28T04:58:01.952Z,1033.32
2019-03-28T04:59:02.171Z,1033.24
2019-03-28T05:00:04.248Z,1033.24
2019-03-28T05:01:02.093Z,1033.24
2019-03-28T05:02:05.451Z,1033.24
2019-03-28T05:03:02.519Z,1033.21
2019-03-28T05:04:01.712Z,1033.21
2019-03-28T05:05:02.066Z,1033.21
2019-03-28T05:06:02.252Z,1033.21
2019-03-28T05:07:02.369Z,1033.27
2019-03-28T05:08:02.607Z,1033.27
2019-03-28T05:09:01.783Z,1033.27
2019-03-28T05:10:02.137Z,1033.27
2019-03-28T05:11:02.335Z,1033.4
2019-03-28T05:12:02.505Z,1033.4
2019-03-28T05:13:01.751Z,1033.4
2019-03-28T05:14:02.036Z,1033.4
2019-03-28T05:15:02.237Z,1033.36
2019-03-28T05:16:02.427Z,1033.36
2019-03-28T05:17:02.635Z,1033.36
2019-03-28T05:18:01.885Z,1033.36
2019-03-28T05:19:02.103Z,1033.43
2019-03-28T05:20:02.403Z,1033.43
2019-03-28T05:21:02.606Z,1033.43
2019-03-28T05:22:01.804Z,1033.43
2019-03-28T05:23:02.094Z,1033.41
2019-03-28T05:24:02.361Z,1033.41
2019-03-28T05:25:02.635Z,1033.41
2019-03-28T05:26:01.814Z,1033.41
2019-03-28T05:27:01.935Z,1033.47
2019-03-28T05:28:02.187Z,1033.47
2019-03-28T05:29:02.354Z,1033.47
2019-03-28T05:30:02.661Z,1033.31
2019-03-28T05:31:01.865Z,1033.31
2019-03-28T05:32:02.111Z,1033.31
2019-03-28T05:33:02.333Z,1033.31
2019-03-28T05:34:02.591Z,1033.34
2019-03-28T05:35:01.708Z,1033.34
2019-03-28T05:36:04.892Z,1033.34
2019-03-28T05:37:02.234Z,1033.34
2019-03-28T05:38:02.753Z,1033.4
2019-03-28T05:39:02.654Z,1033.4
2019-03-28T05:40:01.924Z,1033.4
2019-03-28T05:41:02.082Z,1033.4
2019-03-28T05:42:02.340Z,1033.33
2019-03-28T05:43:02.495Z,1033.33
2019-03-28T05:44:01.716Z,1033.33
2019-03-28T05:45:02.035Z,1033.33
2019-03-28T05:46:02.222Z,1033.43
2019-03-28T05:47:03.420Z,1033.43
2019-03-28T05:48:02.710Z,1033.43
2019-03-28T05:49:01.926Z,1033.43
2019-03-28T05:50:02.283Z,1033.49
2019-03-28T05:51:02.466Z,1033.49
2019-03-28T05:52:01.756Z,1033.49
2019-03-28T05:53:01.991Z,1033.49
2019-03-28T05:54:02.239Z,1033.56
2019-03-28T05:55:05.872Z,1033.56
2019-03-28T05:56:01.765Z,1033.56
2019-03-28T05:57:02.019Z,1033.56
2019-03-28T05:58:02.148Z,1033.51
2019-03-28T05:59:11.706Z,1033.51
2019-03-28T06:00:03.487Z,1033.51
2019-03-28T06:01:02.338Z,1033.51
2019-03-28T06:02:02.507Z,1033.61
2019-03-28T06:03:01.785Z,1033.61
2019-03-28T06:04:02.087Z,1033.61
2019-03-28T06:05:02.362Z,1033.61
2019-03-28T06:06:02.475Z,1033.65
2019-03-28T06:07:01.753Z,1033.65
2019-03-28T06:08:02.893Z,1033.65
2019-03-28T06:09:02.267Z,1033.65
2019-03-28T06:10:02.701Z,1033.79
2019-03-28T06:11:02.858Z,1033.79
2019-03-28T06:12:01.937Z,1033.79
2019-03-28T06:13:02.168Z,1033.79
2019-03-28T06:14:02.449Z,1033.73
2019-03-28T06:15:02.804Z,1033.73
2019-03-28T06:16:01.926Z,1033.73
2019-03-28T06:17:03.380Z,1033.73
2019-03-28T06:18:02.394Z,1033.74
2019-03-28T06:19:02.638Z,1033.74
2019-03-28T06:20:01.854Z,1033.74
2019-03-28T06:21:02.163Z,1033.74
2019-03-28T06:22:02.251Z,1033.86
2019-03-28T06:23:02.507Z,1033.86
2019-03-28T06:24:01.737Z,1033.86
2019-03-28T06:25:06.343Z,1033.86
2019-03-28T06:26:02.165Z,1033.79
2019-03-28T06:27:02.288Z,1033.79
2019-03-28T06:28:02.528Z,1033.79
2019-03-28T06:29:01.784Z,1033.79
2019-03-28T06:30:02.820Z,1033.86
2019-03-28T06:31:02.255Z,1033.86
2019-03-28T06:32:02.946Z,1033.86
2019-03-28T06:33:02.597Z,1033.86
2019-03-28T06:34:01.834Z,1033.92
2019-03-28T06:35:02.117Z,1033.92
2019-03-28T06:36:06.879Z,1033.92
2019-03-28T06:37:02.644Z,1033.92
2019-03-28T06:38:01.857Z,1034.05
2019-03-28T06:39:02.072Z,1034.05
2019-03-28T06:40:02.333Z,1034.05
2019-03-28T06:41:02.601Z,1034.05
2019-03-28T06:42:01.762Z,1034.1
2019-03-28T06:43:01.955Z,1034.1
2019-03-28T06:44:02.164Z,1034.1
2019-03-28T06:45:04.388Z,1034.1
2019-03-28T06:46:01.765Z,1034.03
2019-03-28T06:47:01.997Z,1034.03
2019-03-28T06:48:02.177Z,1034.03
2019-03-28T06:49:02.411Z,1034.03
2019-03-28T06:50:02.759Z,1033.96
2019-03-28T06:51:01.922Z,1033.96
2019-03-28T06:52:02.203Z,1033.96
2019-03-28T06:53:02.412Z,1033.96
2019-03-28T06:54:02.586Z,1034
2019-03-28T06:55:01.877Z,1034
2019-03-28T06:56:02.053Z,1034
2019-03-28T06:57:02.334Z,1034
2019-03-28T06:58:02.490Z,1034.12
2019-03-28T06:59:01.770Z,1034.12
2019-03-28T07:00:03.753Z,1034.12
2019-03-28T07:01:02.580Z,1034.12
2019-03-28T07:02:01.814Z,1034.16
2019-03-28T07:03:01.953Z,1034.16
2019-03-28T07:04:02.185Z,1034.16
2019-03-28T07:05:02.480Z,1034.16
2019-03-28T07:06:02.659Z,1034.25
2019-03-28T07:07:01.747Z,1034.25
2019-03-28T07:08:01.997Z,1034.25
2019-03-28T07:09:02.224Z,1034.25
2019-03-28T07:10:03.167Z,1034.25
2019-03-28T07:11:03.069Z,1034.25
2019-03-28T07:12:01.958Z,1034.25
2019-03-28T07:13:02.204Z,1034.36
2019-03-28T07:14:02.895Z,1034.36
2019-03-28T07:15:02.687Z,1034.36
2019-03-28T07:16:01.897Z,1034.36
2019-03-28T07:17:02.134Z,1034.34
2019-03-28T07:18:02.306Z,1034.34
2019-03-28T07:19:02.549Z,1034.34
2019-03-28T07:20:01.810Z,1034.34
2019-03-28T07:21:02.023Z,1034.41
2019-03-28T07:22:02.212Z,1034.41
2019-03-28T07:23:02.459Z,1034.41
2019-03-28T07:24:02.664Z,1034.41
2019-03-28T07:25:02.034Z,1034.46
2019-03-28T07:26:02.238Z,1034.46
2019-03-28T07:27:02.411Z,1034.46
2019-03-28T07:28:02.645Z,1034.46
2019-03-28T07:29:01.824Z,1034.5
2019-03-28T07:30:01.973Z,1034.5
2019-03-28T07:31:02.161Z,1034.5
2019-03-28T07:32:02.401Z,1034.5
2019-03-28T07:33:02.606Z,1034.48
2019-03-28T07:34:01.746Z,1034.48
2019-03-28T07:35:01.936Z,1034.48
2019-03-28T07:36:02.129Z,1034.48
2019-03-28T07:37:02.397Z,1034.44
2019-03-28T07:38:02.737Z,1034.44
2019-03-28T07:39:01.813Z,1034.44
2019-03-28T07:40:02.169Z,1034.44
2019-03-28T07:41:02.338Z,1034.38
2019-03-28T07:42:02.563Z,1034.38
2019-03-28T07:43:01.865Z,1034.38
2019-03-28T07:44:01.977Z,1034.38
2019-03-28T07:45:02.259Z,1034.39
2019-03-28T07:46:02.509Z,1034.39
2019-03-28T07:47:01.709Z,1034.39
2019-03-28T07:48:01.958Z,1034.39
2019-03-28T07:49:02.163Z,1034.39
2019-03-28T07:50:02.434Z,1034.39
2019-03-28T07:51:02.626Z,1034.39
2019-03-28T07:52:01.977Z,1034.39
2019-03-28T07:53:01.985Z,1034.45
2019-03-28T07:54:02.181Z,1034.45
2019-03-28T07:55:02.470Z,1034.45
2019-03-28T07:56:02.605Z,1034.45
2019-03-28T07:57:01.800Z,1034.46
2019-03-28T07:58:02.041Z,1034.46
2019-03-28T07:59:02.305Z,1034.46
2019-03-28T08:00:05.713Z,1034.46
2019-03-28T08:01:01.890Z,1034.53
2019-03-28T08:02:02.064Z,1034.53
2019-03-28T08:03:02.309Z,1034.53
2019-03-28T08:04:02.511Z,1034.53
2019-03-28T08:05:02.718Z,1034.53
2019-03-28T08:06:01.901Z,1034.53
2019-03-28T08:07:02.139Z,1034.53
2019-03-28T08:08:02.330Z,1034.53
2019-03-28T08:09:02.545Z,1034.51
2019-03-28T08:10:01.789Z,1034.51
2019-03-28T08:11:01.994Z,1034.51
2019-03-28T08:12:02.234Z,1034.51
2019-03-28T08:13:02.487Z,1034.55
2019-03-28T08:14:02.670Z,1034.55
2019-03-28T08:15:01.916Z,1034.55
2019-03-28T08:16:02.118Z,1034.55
2019-03-28T08:17:02.518Z,1034.59
2019-03-28T08:18:02.614Z,1034.59
2019-03-28T08:19:01.742Z,1034.59
2019-03-28T08:20:02.025Z,1034.59
2019-03-28T08:21:02.296Z,1034.71
2019-03-28T08:22:02.524Z,1034.71
2019-03-28T08:23:02.755Z,1034.71
2019-03-28T08:24:01.909Z,1034.71
2019-03-28T08:25:02.141Z,1034.56
2019-03-28T08:26:02.377Z,1034.56
2019-03-28T08:27:02.609Z,1034.56
2019-03-28T08:28:01.858Z,1034.56
2019-03-28T08:29:02.084Z,1034.66
2019-03-28T08:30:02.459Z,1034.66
2019-03-28T08:31:02.599Z,1034.66
2019-03-28T08:32:01.816Z,1034.66
2019-03-28T08:33:02.067Z,1034.72
2019-03-28T08:34:02.398Z,1034.72
2019-03-28T08:35:02.616Z,1034.72
2019-03-28T08:36:01.829Z,1034.72
2019-03-28T08:37:02.102Z,1034.74
2019-03-28T08:38:02.240Z,1034.74
2019-03-28T08:39:02.467Z,1034.74
2019-03-28T08:40:01.830Z,1034.74
2019-03-28T08:41:01.950Z,1034.82
2019-03-28T08:42:02.116Z,1034.82
2019-03-28T08:43:02.336Z,1034.82
2019-03-28T08:44:02.490Z,1034.82
2019-03-28T08:45:02.835Z,1034.71
2019-03-28T08:46:01.959Z,1034.71
2019-03-28T08:47:02.069Z,1034.71
2019-03-28T08:48:02.294Z,1034.71
2019-03-28T08:49:02.512Z,1034.8
2019-03-28T08:50:01.811Z,1034.8
2019-03-28T08:51:02.112Z,1034.8
2019-03-28T08:52:02.385Z,1034.8
2019-03-28T08:53:02.478Z,1034.84
2019-03-28T08:54:01.756Z,1034.84
2019-03-28T08:55:02.029Z,1034.84
2019-03-28T08:56:02.505Z,1034.88
2019-03-28T08:57:02.477Z,1034.88
2019-03-28T08:58:01.722Z,1034.88
2019-03-28T08:59:02.112Z,1034.88
2019-03-28T09:00:04.364Z,1034.85
2019-03-28T09:01:02.277Z,1034.85
2019-03-28T09:02:05.593Z,1034.85
2019-03-28T09:03:02.615Z,1034.85
2019-03-28T09:04:01.786Z,1034.9
2019-03-28T09:05:02.070Z,1034.9
2019-03-28T09:06:02.281Z,1034.9
2019-03-28T09:07:02.438Z,1034.9
2019-03-28T09:08:02.649Z,1034.95
2019-03-28T09:09:01.882Z,1034.95
2019-03-28T09:10:02.214Z,1034.95
2019-03-28T09:11:02.358Z,1034.95
2019-03-28T09:12:02.604Z,1034.9
2019-03-28T09:13:01.786Z,1034.9
2019-03-28T09:14:01.946Z,1034.9
2019-03-28T09:15:02.658Z,1034.9
2019-03-28T09:16:02.546Z,1034.85
2019-03-28T09:17:01.709Z,1034.85
2019-03-28T09:18:01.982Z,1034.85
2019-03-28T09:19:02.237Z,1034.85
2019-03-28T09:20:02.492Z,1035.05
2019-03-28T09:21:01.705Z,1035.05
2019-03-28T09:22:01.915Z,1035.05
2019-03-28T09:23:02.103Z,1035.05
2019-03-28T09:24:02.399Z,1034.9
2019-03-28T09:25:02.623Z,1034.9
2019-03-28T09:26:04.971Z,1034.9
2019-03-28T09:27:02.160Z,1034.9
2019-03-28T09:28:02.426Z,1034.99
2019-03-28T09:29:02.583Z,1034.99
2019-03-28T09:30:01.790Z,1034.99
2019-03-28T09:31:02.023Z,1034.99
2019-03-28T09:32:02.198Z,1034.9
2019-03-28T09:33:02.458Z,1034.9
2019-03-28T09:34:02.929Z,1034.9
2019-03-28T09:35:01.965Z,1034.9
2019-03-28T09:36:02.199Z,1034.95
2019-03-28T09:37:02.434Z,1034.95
2019-03-28T09:38:02.613Z,1034.95
2019-03-28T09:39:01.918Z,1034.95
2019-03-28T09:40:02.132Z,1034.85
2019-03-28T09:41:05.906Z,1034.85
2019-03-28T09:42:02.534Z,1034.85
2019-03-28T09:43:01.733Z,1034.85
2019-03-28T09:44:02.017Z,1034.9
2019-03-28T09:45:02.243Z,1034.9
2019-03-28T09:46:02.570Z,1034.9
2019-03-28T09:47:02.597Z,1034.9
2019-03-28T09:48:01.807Z,1034.88
2019-03-28T09:49:02.004Z,1034.88
2019-03-28T09:50:02.281Z,1034.88
2019-03-28T09:51:02.540Z,1034.88
2019-03-28T09:52:02.866Z,1034.89
2019-03-28T09:53:01.968Z,1034.89
2019-03-28T09:54:02.219Z,1034.89
2019-03-28T09:55:02.512Z,1034.89
2019-03-28T09:56:02.701Z,1034.83
2019-03-28T09:57:01.895Z,1034.83
2019-03-28T09:58:02.068Z,1034.83
2019-03-28T09:59:02.323Z,1034.83
2019-03-28T10:00:05.241Z,1034.91
2019-03-28T10:01:03.746Z,1034.91
2019-03-28T10:02:03.072Z,1034.91
2019-03-28T10:03:02.476Z,1034.91
2019-03-28T10:04:01.700Z,1034.83
2019-03-28T10:05:01.934Z,1034.83
2019-03-28T10:06:02.102Z,1034.83
2019-03-28T10:07:02.360Z,1034.83
2019-03-28T10:08:02.607Z,1034.97
2019-03-28T10:09:01.786Z,1034.97
2019-03-28T10:10:03.082Z,1034.97
2019-03-28T10:11:02.291Z,1034.97
2019-03-28T10:12:02.493Z,1035.01
2019-03-28T10:13:01.708Z,1035.01
2019-03-28T10:14:01.954Z,1035.01
2019-03-28T10:15:02.199Z,1035.01
2019-03-28T10:16:02.466Z,1035.02
2019-03-28T10:17:02.662Z,1035.02
2019-03-28T10:18:01.926Z,1035.02
2019-03-28T10:19:02.190Z,1035.02
2019-03-28T10:20:02.475Z,1035.13
2019-03-28T10:21:02.632Z,1035.13
2019-03-28T10:22:01.936Z,1035.13
2019-03-28T10:23:02.173Z,1035.13
2019-03-28T10:24:02.358Z,1035.11
2019-03-28T10:25:02.671Z,1035.11
2019-03-28T10:26:01.825Z,1035.11
2019-03-28T10:27:02.036Z,1035.11
2019-03-28T10:28:02.336Z,1035.16
2019-03-28T10:29:02.474Z,1035.16
2019-03-28T10:30:01.809Z,1035.16
2019-03-28T10:31:17.054Z,1035.16
2019-03-28T10:32:02.243Z,1035.23
2019-03-28T10:33:02.464Z,1035.23
2019-03-28T10:34:02.657Z,1035.23
2019-03-28T10:35:01.934Z,1035.23
2019-03-28T10:36:02.160Z,1035.1
2019-03-28T10:37:02.437Z,1035.1
2019-03-28T10:38:02.632Z,1035.1
2019-03-28T10:39:01.859Z,1035.26
2019-03-28T10:40:02.153Z,1035.26
2019-03-28T10:41:03.021Z,1035.26
2019-03-28T10:42:02.659Z,1035.26
2019-03-28T10:43:01.924Z,1035.2
2019-03-28T10:44:02.077Z,1035.2
2019-03-28T10:45:02.354Z,1035.2
2019-03-28T10:46:02.578Z,1035.2
2019-03-28T10:47:05.430Z,1035.22
2019-03-28T10:48:01.946Z,1035.22
2019-03-28T10:49:02.153Z,1035.22
2019-03-28T10:50:04.764Z,1035.22
2019-03-28T10:51:01.703Z,1035.21
2019-03-28T10:52:04.543Z,1035.21
2019-03-28T10:53:02.251Z,1035.21
2019-03-28T10:54:02.432Z,1035.21
2019-03-28T10:55:02.727Z,1035.32
2019-03-28T10:56:01.954Z,1035.32
2019-03-28T10:57:28.876Z,1035.32
2019-03-28T10:58:02.499Z,1035.32
2019-03-28T10:59:02.691Z,1035.33
2019-03-28T11:00:04.505Z,1035.33
2019-03-28T11:01:02.333Z,1035.33
2019-03-28T11:02:02.598Z,1035.33
2019-03-28T11:03:02.146Z,1035.35
2019-03-28T11:04:02.073Z,1035.35
2019-03-28T11:05:02.323Z,1035.35
2019-03-28T11:06:02.521Z,1035.35
2019-03-28T11:07:01.823Z,1035.31
2019-03-28T11:08:02.033Z,1035.31
2019-03-28T11:09:02.197Z,1035.31
2019-03-28T11:10:02.543Z,1035.31
2019-03-28T11:11:01.706Z,1035.3
2019-03-28T11:12:01.910Z,1035.3
2019-03-28T11:13:02.206Z,1035.3
2019-03-28T11:14:02.467Z,1035.3
2019-03-28T11:15:02.649Z,1035.35
2019-03-28T11:16:01.838Z,1035.35
2019-03-28T11:17:02.075Z,1035.35
2019-03-28T11:18:02.406Z,1035.35
2019-03-28T11:19:02.569Z,1035.37
2019-03-28T11:20:01.735Z,1035.37
2019-03-28T11:21:02.028Z,1035.37
2019-03-28T11:22:02.216Z,1035.37
2019-03-28T11:23:02.735Z,1035.28
2019-03-28T11:24:02.589Z,1035.28
2019-03-28T11:25:01.898Z,1035.28
2019-03-28T11:26:02.082Z,1035.28
2019-03-28T11:27:02.291Z,1035.37
2019-03-28T11:28:02.493Z,1035.37
2019-03-28T11:29:01.998Z,1035.37
2019-03-28T11:30:02.068Z,1035.37
2019-03-28T11:31:02.175Z,1035.31
2019-03-28T11:32:02.424Z,1035.31
2019-03-28T11:33:02.576Z,1035.31
2019-03-28T11:34:01.830Z,1035.31
2019-03-28T11:35:02.007Z,1035.31
2019-03-28T11:36:02.225Z,1035.31
2019-03-28T11:37:02.391Z,1035.31
2019-03-28T11:38:02.653Z,1035.31
2019-03-28T11:39:03.355Z,1035.29
2019-03-28T11:40:02.221Z,1035.29
2019-03-28T11:41:02.292Z,1035.29
2019-03-28T11:42:02.518Z,1035.29
2019-03-28T11:43:02.704Z,1035.26
2019-03-28T11:44:01.862Z,1035.26
2019-03-28T11:45:02.216Z,1035.26
2019-03-28T11:46:02.326Z,1035.26
2019-03-28T11:47:02.674Z,1035.36
2019-03-28T11:48:01.793Z,1035.36
2019-03-28T11:49:02.062Z,1035.36
2019-03-28T11:50:02.279Z,1035.36
2019-03-28T11:51:02.471Z,1035.27
2019-03-28T11:52:02.695Z,1035.27
2019-03-28T11:53:01.911Z,1035.27
2019-03-28T11:54:02.133Z,1035.27
2019-03-28T11:55:02.398Z,1035.24
2019-03-28T11:56:02.644Z,1035.24
2019-03-28T11:57:01.869Z,1035.24
2019-03-28T11:58:02.131Z,1035.24
2019-03-28T11:59:06.222Z,1035.18
2019-03-28T12:00:04.848Z,1035.18
2019-03-28T12:01:02.629Z,1035.18
2019-03-28T12:02:20.725Z,1035.18
2019-03-28T12:03:02.003Z,1035.22
2019-03-28T12:04:02.136Z,1035.22
2019-03-28T12:05:02.500Z,1035.22
2019-03-28T12:06:02.654Z,1035.22
2019-03-28T12:07:01.934Z,1035.31
2019-03-28T12:08:02.095Z,1035.31
2019-03-28T12:09:02.327Z,1035.31